createdAt,value
2022-09-01T00:00:04.395Z,99754.44
2022-09-01T00:02:34.631Z,99749.56
2022-09-01T00:05:02.188Z,99747.31
2022-09-01T00:07:30.875Z,99747.63
2022-09-01T00:09:59.573Z,99755.91
2022-09-01T00:12:27.605Z,99749.91
2022-09-01T00:14:54.822Z,99752.88
2022-09-01T00:17:22.511Z,99757.88
2022-09-01T00:19:49.704Z,99750.50
2022-09-01T00:22:17.149Z,99757.13
2022-09-01T00:24:44.539Z,99752.34
2022-09-01T00:27:11.551Z,99757.34
2022-09-01T00:29:44.003Z,99756.75
2022-09-01T00:32:11.882Z,99755.16
2022-09-01T00:34:39.660Z,99747.66
2022-09-01T00:37:07.021Z,99744.44
2022-09-01T00:39:34.045Z,99748.84
2022-09-01T00:42:01.099Z,99748.31
2022-09-01T00:44:29.511Z,99747.50
2022-09-01T00:46:59.905Z,99751.97
2022-09-01T00:49:35.010Z,99762.47
2022-09-01T00:52:10.518Z,99757.53
2022-09-01T00:54:46.370Z,99755.63
2022-09-01T00:57:15.720Z,99769.91
2022-09-01T00:59:59.163Z,99758.31
2022-09-01T01:02:26.192Z,99761.41
2022-09-01T01:04:55.156Z,99761.94
2022-09-01T01:07:23.346Z,99762.84
2022-09-01T01:09:51.630Z,99762.38
2022-09-01T01:12:19.075Z,99762.84
2022-09-01T01:14:50.691Z,99765.97
2022-09-01T01:17:23.409Z,99765.34
2022-09-01T01:20:13.080Z,99766.63
2022-09-01T01:23:09.401Z,99761.84
2022-09-01T01:25:49.028Z,99765.47
2022-09-01T01:28:31.294Z,99765.84
2022-09-01T01:31:13.606Z,99773.44
2022-09-01T01:33:44.793Z,99775.13
2022-09-01T01:36:32.486Z,99776.34
2022-09-01T01:39:04.162Z,99770.59
2022-09-01T01:41:33.676Z,99773.94
2022-09-01T01:44:05.850Z,99784.94
2022-09-01T01:46:34.932Z,99776.50
2022-09-01T01:49:03.029Z,99779.47
2022-09-01T01:51:32.216Z,99774.72
2022-09-01T01:54:05.883Z,99778.47
2022-09-01T01:56:38.234Z,99777.47
2022-09-01T01:59:06.468Z,99770.97
2022-09-01T02:01:35.287Z,99774.56
2022-09-01T02:04:04.480Z,99770.94
2022-09-01T02:06:34.838Z,99779.13
2022-09-01T02:09:04.009Z,99771.16
2022-09-01T02:11:34.395Z,99777.91
2022-09-01T02:14:01.617Z,99780.25
2022-09-01T02:16:30.805Z,99783.81
2022-09-01T02:18:58.043Z,99785.94
2022-09-01T02:21:27.350Z,99789.72
2022-09-01T02:24:03.760Z,99787.00
2022-09-01T02:26:35.040Z,99784.09
2022-09-01T02:29:05.402Z,99797.31
2022-09-01T02:31:40.988Z,99781.34
2022-09-01T02:34:10.973Z,99791.63
2022-09-01T02:36:42.700Z,99798.56
2022-09-01T02:39:11.677Z,99791.06
2022-09-01T02:41:39.660Z,99793.41
2022-09-01T02:44:12.099Z,99795.28
2022-09-01T02:46:44.867Z,99778.97
2022-09-01T02:49:19.977Z,99791.94
2022-09-01T02:51:54.310Z,99785.22
2022-09-01T02:54:24.841Z,99780.38
2022-09-01T02:56:54.963Z,99786.06
2022-09-01T02:59:27.732Z,99786.09
2022-09-01T03:01:59.046Z,99780.38
2022-09-01T03:04:27.611Z,99784.84
2022-09-01T03:06:55.330Z,99789.94
2022-09-01T03:09:23.164Z,99800.03
2022-09-01T03:11:53.207Z,99800.25
2022-09-01T03:14:22.579Z,99793.72
2022-09-01T03:16:49.627Z,99809.09
2022-09-01T03:19:19.316Z,99812.66
2022-09-01T03:21:47.674Z,99822.13
2022-09-01T03:24:19.214Z,99823.19
2022-09-01T03:26:49.970Z,99822.34
2022-09-01T03:29:19.376Z,99818.38
2022-09-01T03:31:47.188Z,99814.19
2022-09-01T03:34:16.667Z,99820.72
2022-09-01T03:36:51.139Z,99811.06
2022-09-01T03:39:28.481Z,99817.78
2022-09-01T03:41:56.983Z,99814.03
2022-09-01T03:44:24.051Z,99816.34
2022-09-01T03:46:52.097Z,99825.13
2022-09-01T03:49:25.286Z,99818.84
2022-09-01T03:51:55.545Z,99822.25
2022-09-01T03:54:28.114Z,99821.81
2022-09-01T03:56:55.608Z,99828.38
2022-09-01T03:59:24.816Z,99831.50
2022-09-01T04:01:52.215Z,99830.88
2022-09-01T04:04:19.269Z,99827.09
2022-09-01T04:06:47.098Z,99824.41
2022-09-01T04:09:15.175Z,99831.97
2022-09-01T04:11:46.509Z,99838.69
2022-09-01T04:14:15.732Z,99822.34
2022-09-01T04:17:02.925Z,99819.88
2022-09-01T04:19:37.113Z,99831.41
2022-09-01T04:22:05.440Z,99832.44
2022-09-01T04:24:46.618Z,99828.09
2022-09-01T04:27:18.473Z,99821.59
2022-09-01T04:29:47.144Z,99828.72
2022-09-01T04:32:16.124Z,99824.53
2022-09-01T04:34:49.081Z,99824.78
2022-09-01T04:37:19.899Z,99821.00
2022-09-01T04:39:56.202Z,99825.19
2022-09-01T04:42:27.529Z,99826.47
2022-09-01T04:44:57.862Z,99824.56
2022-09-01T04:47:35.972Z,99837.38
2022-09-01T04:50:14.738Z,99840.97
2022-09-01T04:53:03.738Z,99836.34
2022-09-01T04:55:33.728Z,99842.22
2022-09-01T04:58:08.335Z,99836.34
2022-09-01T05:00:37.692Z,99839.47
2022-09-01T05:03:05.193Z,99846.19
2022-09-01T05:05:51.356Z,99837.63
2022-09-01T05:08:24.292Z,99844.94
2022-09-01T05:10:55.980Z,99842.03
2022-09-01T05:13:41.562Z,99842.03
2022-09-01T05:16:13.456Z,99849.16
2022-09-01T05:18:48.018Z,99838.69
2022-09-01T05:21:20.197Z,99848.94
2022-09-01T05:23:49.578Z,99849.16
2022-09-01T05:26:20.854Z,99853.09
2022-09-01T05:28:55.936Z,99854.41
2022-09-01T05:31:25.426Z,99862.56
2022-09-01T05:33:52.574Z,99863.81
2022-09-01T05:36:23.303Z,99862.34
2022-09-01T05:38:52.551Z,99862.78
2022-09-01T05:41:21.288Z,99869.28
2022-09-01T05:43:56.390Z,99868.00
2022-09-01T05:46:28.682Z,99869.69
2022-09-01T05:48:57.780Z,99869.09
2022-09-01T05:51:44.031Z,99869.72
2022-09-01T05:54:13.177Z,99866.16
2022-09-01T05:56:44.107Z,99874.72
2022-09-01T05:59:23.837Z,99872.22
2022-09-01T06:01:54.513Z,99875.34
2022-09-01T06:04:23.428Z,99881.25
2022-09-01T06:07:11.758Z,99883.13
2022-09-01T06:09:47.965Z,99882.03
2022-09-01T06:12:19.036Z,99877.88
2022-09-01T06:14:48.694Z,99882.28
2022-09-01T06:17:23.433Z,99875.16
2022-09-01T06:19:52.935Z,99881.47
2022-09-01T06:22:20.901Z,99879.78
2022-09-01T06:24:53.768Z,99885.25
2022-09-01T06:27:23.260Z,99879.53
2022-09-01T06:29:53.898Z,99882.25
2022-09-01T06:32:21.486Z,99869.47
2022-09-01T06:34:51.481Z,99880.19
2022-09-01T06:37:23.252Z,99886.47
2022-09-01T06:39:54.199Z,99881.66
2022-09-01T06:42:23.664Z,99886.25
2022-09-01T06:44:56.460Z,99881.41
2022-09-01T06:47:24.548Z,99887.50
2022-09-01T06:49:57.332Z,99878.72
2022-09-01T06:52:26.535Z,99882.28
2022-09-01T06:54:55.019Z,99877.88
2022-09-01T07:00:19.145Z,99885.84
2022-09-01T07:02:53.614Z,99886.69
2022-09-01T07:06:01.310Z,99888.38
2022-09-01T07:14:27.083Z,99898.63
2022-09-01T07:17:23.318Z,99897.56
2022-09-01T07:19:48.888Z,99903.47
2022-09-01T07:25:12.071Z,99919.19
2022-09-01T07:28:00.538Z,99918.53
2022-09-01T07:30:29.256Z,99924.00
2022-09-01T07:32:56.302Z,99928.00
2022-09-01T07:35:25.483Z,99928.63
2022-09-01T07:43:51.374Z,99937.22
2022-09-01T07:46:37.439Z,99948.75
2022-09-01T07:51:57.244Z,99944.94
2022-09-01T07:54:27.567Z,99943.31
2022-09-01T07:56:56.679Z,99947.66
2022-09-01T07:59:28.163Z,99945.59
2022-09-01T08:02:13.594Z,99947.28
2022-09-01T08:04:42.706Z,99950.84
2022-09-01T08:07:15.536Z,99946.84
2022-09-01T08:09:44.827Z,99949.16
2022-09-01T08:12:13.861Z,99941.00
2022-09-01T08:14:47.768Z,99936.59
2022-09-01T08:17:17.984Z,99941.38
2022-09-01T08:20:07.380Z,99950.00
2022-09-01T08:22:59.625Z,99950.63
2022-09-01T08:25:33.698Z,99950.44
2022-09-01T08:28:02.770Z,99942.25
2022-09-01T08:30:32.696Z,99948.75
2022-09-01T08:33:11.184Z,99947.06
2022-09-01T08:35:43.979Z,99947.28
2022-09-01T08:38:11.308Z,99947.69
2022-09-01T08:40:39.139Z,99950.03
2022-09-01T08:43:46.674Z,99952.94
2022-09-01T08:46:29.838Z,99948.31
2022-09-01T08:52:15.247Z,99951.91
2022-09-01T08:54:54.181Z,99946.44
2022-09-01T08:57:26.651Z,99947.91
2022-09-01T09:00:15.770Z,99941.59
2022-09-01T09:02:58.864Z,99939.06
2022-09-01T09:05:38.673Z,99941.34
2022-09-01T09:08:37.285Z,99937.59
2022-09-01T09:11:18.503Z,99938.00
2022-09-01T09:14:07.558Z,99945.34
2022-09-01T09:16:48.099Z,99948.13
2022-09-01T09:19:25.810Z,99951.88
2022-09-01T09:21:56.327Z,99947.28
2022-09-01T09:24:50.529Z,99942.44
2022-09-01T09:27:23.718Z,99948.94
2022-09-01T09:29:53.715Z,99945.16
2022-09-01T09:32:35.235Z,99951.25
2022-09-01T09:35:39.206Z,99956.94
2022-09-01T09:38:29.498Z,99952.72
2022-09-01T09:41:15.899Z,99957.72
2022-09-01T09:43:47.553Z,99968.47
2022-09-01T09:46:25.714Z,99962.78
2022-09-01T09:49:34.708Z,99965.09
2022-09-01T09:52:03.780Z,99962.53
2022-09-01T09:54:33.719Z,99956.03
2022-09-01T09:57:14.088Z,99953.53
2022-09-01T10:00:00.341Z,99957.72
2022-09-01T10:02:32.175Z,99957.97
2022-09-01T10:05:20.438Z,99951.22
2022-09-01T10:07:47.736Z,99947.88
2022-09-01T10:10:40.720Z,99951.44
2022-09-01T10:13:14.209Z,99948.13
2022-09-01T10:15:49.180Z,99954.59
2022-09-01T10:18:28.793Z,99943.88
2022-09-01T10:21:04.479Z,99951.44
2022-09-01T10:23:35.006Z,99932.63
2022-09-01T10:26:11.799Z,99942.03
2022-09-01T10:28:58.303Z,99945.38
2022-09-01T10:31:29.489Z,99942.22
2022-09-01T10:34:05.575Z,99941.78
2022-09-01T10:36:34.136Z,99937.94
2022-09-01T10:39:06.096Z,99937.53
2022-09-01T10:42:07.614Z,99930.94
2022-09-01T10:44:39.145Z,99928.81
2022-09-01T10:47:38.233Z,99929.69
2022-09-01T10:50:25.220Z,99930.53
2022-09-01T10:52:58.910Z,99926.78
2022-09-01T10:56:20.069Z,99929.75
2022-09-01T11:01:49.452Z,99937.94
2022-09-01T11:04:19.900Z,99937.75
2022-09-01T11:07:44.250Z,99939.19
2022-09-01T11:10:36.586Z,99944.91
2022-09-01T11:13:03.616Z,99945.50
2022-09-01T11:15:40.723Z,99951.59
2022-09-01T11:18:13.362Z,99946.34
2022-09-01T11:20:45.819Z,99950.59
2022-09-01T11:23:27.763Z,99944.50
2022-09-01T11:28:45.277Z,99956.91
2022-09-01T11:31:20.737Z,99949.13
2022-09-01T11:34:00.217Z,99946.63
2022-09-01T11:36:35.558Z,99947.03
2022-09-01T11:39:30.290Z,99949.97
2022-09-01T11:42:11.193Z,99946.63
2022-09-01T11:44:49.212Z,99948.69
2022-09-01T11:47:21.310Z,99943.47
2022-09-01T11:49:58.614Z,99936.16
2022-09-01T11:52:30.985Z,99936.56
2022-09-01T11:54:59.557Z,99939.69
2022-09-01T11:57:28.567Z,99941.16
2022-09-01T11:59:57.814Z,99944.13
2022-09-01T12:02:29.993Z,99937.00
2022-09-01T12:04:57.961Z,99933.00
2022-09-01T12:07:47.687Z,99931.31
2022-09-01T12:10:36.384Z,99932.19
2022-09-01T12:13:09.825Z,99927.56
2022-09-01T12:16:00.560Z,99919.59
2022-09-01T12:18:32.398Z,99920.44
2022-09-01T12:21:02.423Z,99921.69
2022-09-01T12:23:46.236Z,99915.00
2022-09-01T12:26:25.220Z,99921.47
2022-09-01T12:28:53.408Z,99912.06
2022-09-01T12:31:24.025Z,99916.44
2022-09-01T12:33:53.041Z,99922.97
2022-09-01T12:36:25.417Z,99922.09
2022-09-01T12:38:57.932Z,99929.84
2022-09-01T12:41:33.335Z,99926.50
2022-09-01T12:44:26.709Z,99925.63
2022-09-01T12:46:54.232Z,99931.75
2022-09-01T12:49:35.220Z,99931.94
2022-09-01T13:08:01.084Z,99929.84
2022-09-01T13:10:33.105Z,99930.50
2022-09-01T13:13:02.324Z,99933.63
2022-09-01T13:15:29.306Z,99929.88
2022-09-01T13:17:56.593Z,99934.50
2022-09-01T13:20:24.238Z,99940.16
2022-09-01T13:22:51.617Z,99933.25
2022-09-01T13:25:21.120Z,99936.81
2022-09-01T13:27:48.871Z,99941.81
2022-09-01T13:30:18.834Z,99944.16
2022-09-01T13:35:34.653Z,99940.56
2022-09-01T13:38:01.830Z,99942.69
2022-09-01T13:40:28.933Z,99946.44
2022-09-01T13:42:55.984Z,99936.56
2022-09-01T13:45:27.925Z,99951.06
2022-09-01T13:53:30.799Z,99948.13
2022-09-01T13:58:45.214Z,99951.06
2022-09-01T14:01:16.750Z,99943.28
2022-09-01T14:03:45.452Z,99945.97
2022-09-01T14:06:14.082Z,99945.56
2022-09-01T14:08:41.354Z,99946.19
2022-09-01T14:11:09.178Z,99953.31
2022-09-01T14:13:38.190Z,99951.63
2022-09-01T14:16:11.163Z,99963.56
2022-09-01T14:18:38.949Z,99952.66
2022-09-01T14:21:12.899Z,99949.97
2022-09-01T14:23:42.911Z,99951.19
2022-09-01T14:26:15.285Z,99943.25
2022-09-01T14:28:46.067Z,99952.88
2022-09-01T14:31:15.905Z,99948.47
2022-09-01T14:33:44.280Z,99946.13
2022-09-01T14:36:22.220Z,99952.03
2022-09-01T14:38:50.465Z,99947.84
2022-09-01T14:41:23.567Z,99933.38
2022-09-01T14:43:54.295Z,99936.72
2022-09-01T14:46:21.402Z,99935.03
2022-09-01T14:48:49.055Z,99927.88
2022-09-01T14:51:23.781Z,99931.81
2022-09-01T14:53:52.711Z,99942.28
2022-09-01T14:56:20.603Z,99932.28
2022-09-01T14:58:48.858Z,99949.25
2022-09-01T15:01:34.202Z,99951.59
2022-09-01T15:04:02.317Z,99940.25
2022-09-01T15:06:29.425Z,99940.25
2022-09-01T15:08:56.551Z,99937.13
2022-09-01T15:11:23.621Z,99943.78
2022-09-01T15:13:52.527Z,99937.25
2022-09-01T15:16:22.783Z,99949.03
2022-09-01T15:18:50.596Z,99945.09
2022-09-01T15:21:34.025Z,99942.75
2022-09-01T15:24:02.138Z,99947.84
2022-09-01T15:26:29.960Z,99947.00
2022-09-01T15:28:59.764Z,99941.94
2022-09-01T15:31:32.798Z,99942.19
2022-09-01T15:34:04.646Z,99946.41
2022-09-01T15:36:34.670Z,99945.13
2022-09-01T15:39:02.042Z,99943.22
2022-09-01T15:41:31.826Z,99941.09
2022-09-01T15:43:59.328Z,99943.84
2022-09-01T15:46:32.206Z,99942.78
2022-09-01T15:49:00.438Z,99933.53
2022-09-01T15:51:41.566Z,99938.16
2022-09-01T15:54:10.645Z,99932.69
2022-09-01T15:56:37.955Z,99930.81
2022-09-01T15:59:07.259Z,99928.31
2022-09-01T16:01:37.700Z,99925.78
2022-09-01T16:04:07.873Z,99928.53
2022-09-01T16:06:35.487Z,99924.97
2022-09-01T16:09:02.708Z,99932.31
2022-09-01T16:11:29.789Z,99929.41
2022-09-01T16:13:57.232Z,99934.44
2022-09-01T16:16:48.901Z,99925.84
2022-09-01T16:19:44.550Z,99923.97
2022-09-01T16:22:23.674Z,99927.53
2022-09-01T16:24:54.566Z,99922.50
2022-09-01T16:27:27.757Z,99924.81
2022-09-01T16:30:04.298Z,99931.53
2022-09-01T16:32:33.367Z,99928.19
2022-09-01T16:35:01.843Z,99929.41
2022-09-01T16:37:39.879Z,99929.19
2022-09-01T16:40:15.878Z,99928.41
2022-09-01T16:43:03.121Z,99929.66
2022-09-01T16:45:43.084Z,99933.03
2022-09-01T16:48:21.197Z,99930.69
2022-09-01T16:51:13.903Z,99924.00
2022-09-01T16:53:40.972Z,99933.22
2022-09-01T16:56:31.586Z,99931.13
2022-09-01T16:59:03.449Z,99923.59
2022-09-01T17:01:37.330Z,99921.47
2022-09-01T17:04:10.807Z,99933.88
2022-09-01T17:07:03.692Z,99931.56
2022-09-01T17:09:53.311Z,99925.22
2022-09-01T17:12:49.652Z,99931.50
2022-09-01T17:15:30.785Z,99929.19
2022-09-01T17:18:22.018Z,99929.22
2022-09-01T17:20:58.102Z,99930.47
2022-09-01T17:23:30.039Z,99935.69
2022-09-01T17:26:03.345Z,99933.81
2022-09-01T17:28:34.871Z,99936.91
2022-09-01T17:31:14.672Z,99930.84
2022-09-01T17:33:56.968Z,99940.47
2022-09-01T17:36:44.584Z,99935.41
2022-09-01T17:39:38.380Z,99941.09
2022-09-01T17:42:22.012Z,99933.78
2022-09-01T17:44:58.964Z,99934.19
2022-09-01T17:47:53.101Z,99937.31
2022-09-01T17:50:35.304Z,99930.00
2022-09-01T17:53:11.065Z,99940.28
2022-09-01T17:55:59.080Z,99936.53
2022-09-01T17:58:37.907Z,99943.63
2022-09-01T18:01:19.224Z,99949.03
2022-09-01T18:04:38.762Z,99951.13
2022-09-01T18:07:33.615Z,99950.72
2022-09-01T18:10:05.024Z,99962.28
2022-09-01T18:12:38.070Z,99961.44
2022-09-01T18:15:10.236Z,99955.16
2022-09-01T18:17:50.682Z,99964.16
2022-09-01T18:20:23.766Z,99959.75
2022-09-01T18:23:03.707Z,99959.97
2022-09-01T18:25:48.260Z,99963.72
2022-09-01T18:28:15.789Z,99955.34
2022-09-01T18:31:11.733Z,99966.03
2022-09-01T18:33:38.799Z,99961.00
2022-09-01T18:36:41.488Z,99964.97
2022-09-01T18:39:20.717Z,99960.56
2022-09-01T18:42:29.533Z,99964.34
2022-09-01T18:45:18.561Z,99961.16
2022-09-01T18:48:04.481Z,99969.72
2022-09-01T18:51:07.487Z,99970.34
2022-09-01T18:54:11.884Z,99972.66
2022-09-01T18:56:49.403Z,99974.75
2022-09-01T19:00:03.071Z,99978.31
2022-09-01T19:02:54.979Z,99981.88
2022-09-01T19:05:52.890Z,99979.78
2022-09-01T19:08:58.965Z,99982.28
2022-09-01T19:11:35.129Z,99993.00
2022-09-01T19:14:29.540Z,99987.09
2022-09-01T19:17:09.112Z,99988.34
2022-09-01T19:19:49.415Z,99999.66
2022-09-01T19:22:21.655Z,99993.34
2022-09-01T19:25:20.141Z,99998.78
2022-09-01T19:28:33.974Z,100010.72
2022-09-01T19:31:13.775Z,100000.66
2022-09-01T19:33:45.664Z,99996.66
2022-09-01T19:36:20.728Z,100007.78
2022-09-01T19:38:48.622Z,100005.28
2022-09-01T19:41:24.054Z,100004.88
2022-09-01T19:44:05.840Z,100004.91
2022-09-01T19:46:47.384Z,100004.91
2022-09-01T19:49:22.852Z,99999.25
2022-09-01T19:52:06.078Z,99994.00
2022-09-01T19:54:44.963Z,100003.84
2022-09-01T19:57:23.011Z,99996.72
2022-09-01T20:00:00.698Z,99995.47
2022-09-01T20:02:47.270Z,100002.19
2022-09-01T20:05:27.419Z,99995.06
2022-09-01T20:08:13.678Z,100000.25
2022-09-01T20:11:13.557Z,100006.13
2022-09-01T20:13:48.170Z,100001.50
2022-09-01T20:16:36.285Z,100002.72
2022-09-01T20:19:16.254Z,100002.72
2022-09-01T20:21:46.578Z,100000.41
2022-09-01T20:24:24.548Z,100004.22
2022-09-01T20:26:58.735Z,100011.16
2022-09-01T20:29:33.014Z,100003.78
2022-09-01T20:32:04.282Z,100001.84
2022-09-01T20:34:37.288Z,100000.78
2022-09-01T20:37:26.832Z,100004.16
2022-09-01T20:40:05.240Z,100004.34
2022-09-01T20:43:03.167Z,100004.78
2022-09-01T20:45:32.189Z,100005.44
2022-09-01T20:48:07.274Z,100003.50
2022-09-01T20:50:43.581Z,100006.84
2022-09-01T20:53:18.746Z,100010.59
2022-09-01T20:55:51.456Z,100004.41
2022-09-01T20:58:36.978Z,100012.59
2022-09-01T21:01:15.553Z,100011.16
2022-09-01T21:04:08.534Z,100016.41
2022-09-01T21:06:54.451Z,100016.81
2022-09-01T21:09:55.586Z,100023.94
2022-09-01T21:12:47.179Z,100016.81
2022-09-01T21:15:14.408Z,100018.97
2022-09-01T21:17:47.188Z,100019.78
2022-09-01T21:20:41.321Z,100019.34
2022-09-01T21:23:08.493Z,100016.22
2022-09-01T21:25:35.573Z,100023.34
2022-09-01T21:28:06.888Z,100025.78
2022-09-01T21:30:36.196Z,100019.22
2022-09-01T21:33:04.686Z,100019.59
2022-09-01T21:35:31.947Z,100019.84
2022-09-01T21:37:58.910Z,100013.09
2022-09-01T21:40:26.726Z,100012.88
2022-09-01T21:43:21.747Z,100020.56
2022-09-01T21:45:49.391Z,100023.06
2022-09-01T21:48:16.937Z,100010.88
2022-09-01T21:50:44.204Z,100014.91
2022-09-01T21:53:14.164Z,100011.34
2022-09-01T21:55:41.277Z,100012.59
2022-09-01T21:58:09.256Z,100011.75
2022-09-01T22:00:43.497Z,100009.66
2022-09-01T22:03:12.011Z,100012.81
2022-09-01T22:05:42.095Z,100010.44
2022-09-01T22:08:12.445Z,100010.38
2022-09-01T22:10:50.723Z,99999.84
2022-09-01T22:13:19.268Z,100007.03
2022-09-01T22:15:50.168Z,100001.19
2022-09-01T22:18:19.007Z,100006.00
2022-09-01T22:20:46.852Z,100008.34
2022-09-01T22:23:15.030Z,100000.63
2022-09-01T22:25:44.940Z,100002.69
2022-09-01T22:28:12.114Z,100003.75
2022-09-01T22:30:48.087Z,100003.19
2022-09-01T22:33:16.135Z,99992.25
2022-09-01T22:35:45.642Z,99993.72
2022-09-01T22:38:13.199Z,100004.88
2022-09-01T22:40:55.310Z,99998.53
2022-09-01T22:43:24.507Z,100001.25
2022-09-01T22:45:52.364Z,99995.44
2022-09-01T22:48:25.352Z,100000.22
2022-09-01T22:50:53.283Z,99991.81
2022-09-01T22:53:21.968Z,99992.47
2022-09-01T22:55:51.199Z,99993.09
2022-09-01T22:58:19.465Z,99989.34
2022-09-01T23:00:53.163Z,99990.16
2022-09-01T23:03:21.255Z,99987.91
2022-09-01T23:05:50.225Z,99992.09
2022-09-01T23:08:18.265Z,99993.56
2022-09-01T23:10:45.188Z,99998.31
2022-09-01T23:13:12.258Z,99994.19
2022-09-01T23:15:39.256Z,99993.34
2022-09-01T23:18:06.478Z,99993.28
2022-09-01T23:20:33.619Z,99988.97
2022-09-01T23:23:00.740Z,99992.88
2022-09-01T23:25:28.364Z,99996.91
2022-09-01T23:27:55.640Z,99993.09
2022-09-01T23:30:22.797Z,99991.81
2022-09-01T23:32:49.788Z,99986.59
2022-09-01T23:35:16.862Z,99980.75
2022-09-01T23:37:44.240Z,99977.31
2022-09-01T23:40:11.436Z,99978.81
2022-09-01T23:42:38.578Z,99977.38
2022-09-01T23:45:06.285Z,99978.44
2022-09-01T23:47:33.334Z,99970.44
2022-09-01T23:50:00.354Z,99967.50
2022-09-01T23:52:27.372Z,99965.84
2022-09-01T23:54:54.810Z,99972.53
2022-09-01T23:57:21.886Z,99961.03
2022-09-01T23:59:49.284Z,99963.78
